Time;durP1;ratioP1;P1;durP2;ratioP2;P2;SDS_P1;SDS_P2;PMS_P1;PMS_P2;Temp;Humidity;BMP_temperature;BMP_pressure;BME280_temperature;BME280_humidity;BME280_pressure;Samples;Min_cycle;Max_cycle;Signal;HPM_P1;HPM_P2
2022/01/29 00:00:14;;;;;;;15.33;2.57;;;;;;;;;;4949250;28;20051;-66
2022/01/29 00:02:40;;;;;;;9.10;1.60;;;;;;;;;;4946096;28;20023;-67
2022/01/29 00:05:06;;;;;;;10.00;1.87;;;;;;;;;;4946425;29;20019;-66
2022/01/29 00:07:31;;;;;;;10.93;2.37;;;;;;;;;;4945951;29;20046;-67
2022/01/29 00:10:02;;;;;;;12.40;1.87;;;;;;;;;;4951091;28;20431;-65
2022/01/29 00:12:28;;;;;;;9.33;1.60;;;;;;;;;;4951066;29;20023;-65
2022/01/29 00:14:53;;;;;;;11.60;1.67;;;;;;;;;;4950646;28;20047;-66
2022/01/29 00:17:18;;;;;;;15.87;2.50;;;;;;;;;;4951424;28;20024;-66
2022/01/29 00:19:43;;;;;;;9.47;1.80;;;;;;;;;;4950357;28;20022;-66
2022/01/29 00:22:09;;;;;;;12.93;1.93;;;;;;;;;;4946930;29;20035;-65
2022/01/29 00:24:34;;;;;;;10.50;1.53;;;;;;;;;;4950141;29;20150;-66
2022/01/29 00:27:02;;;;;;;9.80;2.00;;;;;;;;;;4946739;28;20027;-67
2022/01/29 00:29:27;;;;;;;7.50;1.10;;;;;;;;;;4947404;29;20113;-66
2022/01/29 00:31:53;;;;;;;6.67;0.90;;;;;;;;;;4950104;28;20098;-66
2022/01/29 00:34:18;;;;;;;12.33;2.30;;;;;;;;;;4950500;28;20035;-66
2022/01/29 00:36:43;;;;;;;9.00;1.17;;;;;;;;;;4950791;28;20039;-67
2022/01/29 00:39:08;;;;;;;11.00;1.30;;;;;;;;;;4946940;29;20027;-67
2022/01/29 00:41:34;;;;;;;13.10;1.73;;;;;;;;;;4951873;29;20024;-67
2022/01/29 00:44:00;;;;;;;11.07;2.13;;;;;;;;;;4948776;28;20125;-67
2022/01/29 00:46:25;;;;;;;7.33;1.20;;;;;;;;;;4950902;28;20066;-67
2022/01/29 00:48:50;;;;;;;9.70;1.40;;;;;;;;;;4949915;28;20027;-65
2022/01/29 00:51:15;;;;;;;10.60;1.60;;;;;;;;;;4941670;28;20490;-65
2022/01/29 00:53:40;;;;;;;9.40;1.63;;;;;;;;;;4948968;29;20019;-66
2022/01/29 00:56:07;;;;;;;8.23;1.20;;;;;;;;;;4944471;29;20035;-66
2022/01/29 00:58:33;;;;;;;9.03;1.07;;;;;;;;;;4947835;28;20397;-64
2022/01/29 01:00:58;;;;;;;11.43;1.87;;;;;;;;;;4949659;28;20037;-66
2022/01/29 01:03:24;;;;;;;10.13;1.27;;;;;;;;;;4948373;28;20019;-65
2022/01/29 01:05:49;;;;;;;12.17;1.63;;;;;;;;;;4948896;28;20350;-66
2022/01/29 01:08:14;;;;;;;12.97;1.63;;;;;;;;;;4946099;29;20039;-66
2022/01/29 01:10:39;;;;;;;12.10;1.83;;;;;;;;;;4963466;28;20034;-66
2022/01/29 01:13:05;;;;;;;10.73;1.50;;;;;;;;;;4949850;29;20031;-66
2022/01/29 01:15:30;;;;;;;7.73;1.33;;;;;;;;;;4946033;28;20038;-66
2022/01/29 01:17:55;;;;;;;8.03;1.90;;;;;;;;;;4946998;29;20127;-66
2022/01/29 01:20:20;;;;;;;14.80;0.90;;;;;;;;;;4945665;28;20069;-67
2022/01/29 01:22:46;;;;;;;6.63;1.20;;;;;;;;;;4945668;29;20035;-67
2022/01/29 01:25:11;;;;;;;9.53;1.47;;;;;;;;;;4949051;29;20052;-65
2022/01/29 01:27:36;;;;;;;7.37;1.00;;;;;;;;;;4951402;28;20045;-66
2022/01/29 01:30:02;;;;;;;9.80;1.70;;;;;;;;;;4944349;28;20026;-66
2022/01/29 01:32:27;;;;;;;9.83;1.30;;;;;;;;;;4951557;28;20046;-66
2022/01/29 01:34:56;;;;;;;8.03;1.17;;;;;;;;;;4945315;29;20042;-66
2022/01/29 01:37:35;;;;;;;7.37;1.90;;;;;;;;;;4945936;29;20041;-66
2022/01/29 01:40:01;;;;;;;9.00;2.03;;;;;;;;;;4944410;29;20035;-66
2022/01/29 01:42:27;;;;;;;8.50;1.27;;;;;;;;;;4947534;28;20408;-67
2022/01/29 01:44:53;;;;;;;5.47;1.20;;;;;;;;;;4943836;29;20102;-67
2022/01/29 01:47:18;;;;;;;10.47;1.67;;;;;;;;;;4950704;28;20034;-67
2022/01/29 01:49:43;;;;;;;17.33;2.43;;;;;;;;;;4949468;28;20126;-65
2022/01/29 01:52:10;;;;;;;9.53;1.37;;;;;;;;;;4950585;28;20118;-65
2022/01/29 01:54:35;;;;;;;12.53;1.83;;;;;;;;;;4953342;28;20023;-66
2022/01/29 01:57:01;;;;;;;10.03;1.30;;;;;;;;;;4953210;28;20038;-66
2022/01/29 01:59:26;;;;;;;15.13;1.83;;;;;;;;;;4952266;28;20038;-65
2022/01/29 02:01:52;;;;;;;9.57;2.00;;;;;;;;;;4953042;28;20043;-66
2022/01/29 02:04:17;;;;;;;12.35;1.88;;;;;;;;;;4955577;29;20159;-66
2022/01/29 02:06:42;;;;;;;9.00;1.70;;;;;;;;;;4956890;28;20094;-66
2022/01/29 02:09:08;;;;;;;12.87;2.47;;;;;;;;;;4963788;28;20047;-66
2022/01/29 02:11:33;;;;;;;11.30;1.70;;;;;;;;;;4955042;29;20508;-67
2022/01/29 02:14:00;;;;;;;9.97;1.33;;;;;;;;;;4952512;29;20038;-66
2022/01/29 02:16:30;;;;;;;7.63;1.37;;;;;;;;;;4941880;29;20040;-66
2022/01/29 02:18:55;;;;;;;8.73;1.50;;;;;;;;;;4965977;28;20097;-66
2022/01/29 02:21:21;;;;;;;6.50;1.50;;;;;;;;;;4957137;28;20445;-67
2022/01/29 02:23:46;;;;;;;7.47;1.20;;;;;;;;;;4962037;28;20041;-66
2022/01/29 02:26:12;;;;;;;11.03;2.30;;;;;;;;;;4961313;28;20059;-66
2022/01/29 02:28:37;;;;;;;11.57;2.13;;;;;;;;;;4955030;29;20020;-66
2022/01/29 02:31:04;;;;;;;6.43;1.40;;;;;;;;;;4943675;28;20027;-64
2022/01/29 02:33:33;;;;;;;10.03;1.83;;;;;;;;;;4956783;28;20031;-66
2022/01/29 02:35:58;;;;;;;10.97;1.67;;;;;;;;;;4956527;29;20473;-66
2022/01/29 02:38:24;;;;;;;12.33;2.37;;;;;;;;;;4970881;28;20046;-66
2022/01/29 02:40:54;;;;;;;11.20;2.07;;;;;;;;;;4955318;28;20035;-66
2022/01/29 02:43:47;;;;;;;5.70;1.50;;;;;;;;;;4954649;29;20126;-66
2022/01/29 02:48:41;;;;;;;4.93;1.87;;;;;;;;;;4956294;28;20027;-65
2022/01/29 02:51:06;;;;;;;7.40;1.87;;;;;;;;;;4952895;28;20032;-66
2022/01/29 02:53:31;;;;;;;7.93;1.60;;;;;;;;;;4954597;29;20031;-66
2022/01/29 02:55:57;;;;;;;8.87;1.70;;;;;;;;;;4956477;29;20066;-67
2022/01/29 02:58:22;;;;;;;10.70;1.80;;;;;;;;;;4955619;29;20035;-66
2022/01/29 03:00:47;;;;;;;7.67;1.53;;;;;;;;;;4960873;28;20537;-66
2022/01/29 03:03:12;;;;;;;11.53;2.17;;;;;;;;;;4960176;28;20027;-66
2022/01/29 03:05:37;;;;;;;5.78;1.88;;;;;;;;;;4956451;29;20035;-66
2022/01/29 03:08:03;;;;;;;11.13;2.10;;;;;;;;;;4955939;29;20030;-65
2022/01/29 03:10:28;;;;;;;8.43;2.30;;;;;;;;;;4954520;28;20147;-66
2022/01/29 03:12:53;;;;;;;6.78;1.35;;;;;;;;;;4956214;28;20042;-66
2022/01/29 03:15:19;;;;;;;7.20;1.83;;;;;;;;;;4955060;28;20047;-67
2022/01/29 03:17:44;;;;;;;4.60;1.65;;;;;;;;;;4956373;28;20532;-66
2022/01/29 03:20:10;;;;;;;10.53;2.30;;;;;;;;;;4950809;28;20519;-65
2022/01/29 03:22:35;;;;;;;10.00;2.50;;;;;;;;;;4954958;29;20074;-66
2022/01/29 03:25:00;;;;;;;11.17;2.13;;;;;;;;;;4954022;29;20059;-66
2022/01/29 03:27:25;;;;;;;10.75;2.90;;;;;;;;;;4955011;29;20023;-66
2022/01/29 03:29:51;;;;;;;9.20;2.75;;;;;;;;;;4954832;28;20027;-64
2022/01/29 03:32:16;;;;;;;9.48;2.80;;;;;;;;;;4954583;29;20118;-65
2022/01/29 03:34:41;;;;;;;10.85;2.60;;;;;;;;;;4954460;28;20399;-65
2022/01/29 03:37:06;;;;;;;8.13;3.00;;;;;;;;;;4970551;28;20058;-66
2022/01/29 03:39:34;;;;;;;7.80;2.03;;;;;;;;;;4955498;28;20034;-65
2022/01/29 03:42:04;;;;;;;11.57;3.37;;;;;;;;;;4955506;29;20031;-65
2022/01/29 03:44:29;;;;;;;8.65;2.80;;;;;;;;;;4961351;28;20034;-66
2022/01/29 03:46:54;;;;;;;9.55;2.65;;;;;;;;;;4955320;29;20027;-66
2022/01/29 03:49:19;;;;;;;8.68;3.45;;;;;;;;;;4954639;28;20023;-67
2022/01/29 03:51:44;;;;;;;8.02;3.28;;;;;;;;;;4952540;28;20027;-67
2022/01/29 03:54:10;;;;;;;7.78;3.15;;;;;;;;;;4958502;28;20472;-67
2022/01/29 03:56:35;;;;;;;8.88;3.70;;;;;;;;;;4955092;29;20043;-67
2022/01/29 03:59:00;;;;;;;6.60;2.45;;;;;;;;;;4953313;29;20031;-67
2022/01/29 04:01:25;;;;;;;6.43;3.53;;;;;;;;;;4954914;28;20034;-66
2022/01/29 04:03:50;;;;;;;10.97;4.67;;;;;;;;;;4955510;28;20110;-67
2022/01/29 04:06:16;;;;;;;9.43;4.53;;;;;;;;;;4955277;28;20042;-66
2022/01/29 04:08:42;;;;;;;7.30;4.10;;;;;;;;;;4954807;29;20468;-66
2022/01/29 04:11:10;;;;;;;10.95;4.82;;;;;;;;;;4955126;29;20019;-66
2022/01/29 04:13:37;;;;;;;11.30;5.03;;;;;;;;;;4954637;28;20461;-66
2022/01/29 04:16:02;;;;;;;10.20;4.38;;;;;;;;;;4965188;28;20031;-65
2022/01/29 04:18:27;;;;;;;9.20;4.68;;;;;;;;;;4954585;28;20030;-67
2022/01/29 04:20:53;;;;;;;11.55;4.93;;;;;;;;;;4950992;28;20093;-66
2022/01/29 04:23:18;;;;;;;11.90;5.15;;;;;;;;;;4954308;29;20106;-67
2022/01/29 04:25:43;;;;;;;8.50;4.57;;;;;;;;;;4953370;28;20094;-67
2022/01/29 04:28:12;;;;;;;11.63;5.30;;;;;;;;;;4954450;28;20031;-67
2022/01/29 04:30:59;;;;;;;6.72;4.00;;;;;;;;;;4954070;29;20023;-66
2022/01/29 04:33:28;;;;;;;9.90;6.22;;;;;;;;;;4954228;28;20492;-67
2022/01/29 04:35:54;;;;;;;13.37;7.03;;;;;;;;;;4954220;29;20031;-67
2022/01/29 04:38:19;;;;;;;8.87;5.53;;;;;;;;;;4954097;28;20030;-67
2022/01/29 04:40:45;;;;;;;7.15;5.90;;;;;;;;;;4953459;29;20086;-67
2022/01/29 04:43:11;;;;;;;7.23;5.33;;;;;;;;;;4954058;29;20039;-66
2022/01/29 04:45:36;;;;;;;9.98;5.22;;;;;;;;;;4954584;28;20085;-66
2022/01/29 04:48:01;;;;;;;12.70;7.55;;;;;;;;;;4959709;28;20139;-65
2022/01/29 04:50:27;;;;;;;10.70;6.55;;;;;;;;;;4951574;28;20062;-66
2022/01/29 04:52:52;;;;;;;12.05;7.30;;;;;;;;;;4953564;29;20043;-66
2022/01/29 04:55:17;;;;;;;10.00;6.85;;;;;;;;;;4953385;29;20492;-66
2022/01/29 04:57:43;;;;;;;12.60;5.85;;;;;;;;;;4953672;28;20031;-65
2022/01/29 05:00:10;;;;;;;10.32;6.88;;;;;;;;;;4953582;29;20031;-66
2022/01/29 05:02:35;;;;;;;10.53;7.43;;;;;;;;;;4949516;29;20024;-67
2022/01/29 05:05:01;;;;;;;12.30;6.93;;;;;;;;;;4945839;29;20480;-67
2022/01/29 05:07:26;;;;;;;10.02;6.82;;;;;;;;;;4954821;28;20468;-67
2022/01/29 05:09:51;;;;;;;9.85;5.75;;;;;;;;;;4959793;28;20028;-65
2022/01/29 05:12:23;;;;;;;11.25;7.57;;;;;;;;;;4939664;29;20106;-68
2022/01/29 05:15:16;;;;;;;11.63;6.82;;;;;;;;;;4953522;29;20106;-68
2022/01/29 05:28:36;;;;;;;11.68;7.93;;;;;;;;;;4953849;29;20114;-68
2022/01/29 05:31:01;;;;;;;11.50;8.82;;;;;;;;;;4953571;29;20055;-68
2022/01/29 05:33:27;;;;;;;13.90;9.93;;;;;;;;;;4953372;28;20122;-69
2022/01/29 05:35:52;;;;;;;15.43;8.90;;;;;;;;;;4953499;28;20027;-68
2022/01/29 05:38:17;;;;;;;13.23;7.93;;;;;;;;;;4953115;28;20459;-68
2022/01/29 05:40:42;;;;;;;14.02;8.68;;;;;;;;;;4952277;28;20098;-68
2022/01/29 05:43:07;;;;;;;11.77;9.25;;;;;;;;;;4952144;28;20548;-69
2022/01/29 05:45:33;;;;;;;12.40;8.27;;;;;;;;;;4968042;28;20153;-69
2022/01/29 05:47:58;;;;;;;12.73;8.02;;;;;;;;;;4962472;28;20024;-68
2022/01/29 05:50:23;;;;;;;11.25;7.75;;;;;;;;;;4949420;28;20374;-68
2022/01/29 05:52:48;;;;;;;12.52;8.43;;;;;;;;;;4952760;29;20037;-69
2022/01/29 05:55:13;;;;;;;14.77;8.48;;;;;;;;;;4952503;29;20035;-68
2022/01/29 05:57:38;;;;;;;9.73;7.40;;;;;;;;;;4954612;28;20460;-69
2022/01/29 06:00:05;;;;;;;11.27;8.65;;;;;;;;;;4952522;29;20403;-68
2022/01/29 06:02:30;;;;;;;13.68;8.93;;;;;;;;;;4953531;29;20075;-69
2022/01/29 06:04:55;;;;;;;11.00;7.53;;;;;;;;;;4953257;29;20106;-68
2022/01/29 06:07:20;;;;;;;12.32;8.52;;;;;;;;;;4953646;28;20051;-69
2022/01/29 06:09:47;;;;;;;13.93;8.20;;;;;;;;;;4948534;29;20023;-68
2022/01/29 06:12:12;;;;;;;14.35;9.27;;;;;;;;;;4946995;28;20070;-69
2022/01/29 06:14:37;;;;;;;9.80;6.63;;;;;;;;;;4966245;28;20122;-67
2022/01/29 06:17:02;;;;;;;13.30;7.90;;;;;;;;;;4952871;28;20019;-69
2022/01/29 06:19:28;;;;;;;12.43;9.55;;;;;;;;;;4951992;28;20109;-68
2022/01/29 06:21:53;;;;;;;11.80;8.18;;;;;;;;;;4948953;28;20043;-68
2022/01/29 06:24:18;;;;;;;9.95;7.25;;;;;;;;;;4952151;28;20122;-68
2022/01/29 06:26:43;;;;;;;10.20;7.07;;;;;;;;;;4952626;28;20031;-68
2022/01/29 06:29:08;;;;;;;10.60;8.15;;;;;;;;;;4951916;28;20027;-68
2022/01/29 06:31:34;;;;;;;12.82;9.50;;;;;;;;;;4952349;28;20459;-68
2022/01/29 06:33:59;;;;;;;11.20;7.93;;;;;;;;;;4952046;28;20027;-69
2022/01/29 06:36:24;;;;;;;14.15;8.88;;;;;;;;;;4952223;28;20023;-67
2022/01/29 06:38:49;;;;;;;12.05;7.72;;;;;;;;;;4952059;29;20780;-68
2022/01/29 06:41:15;;;;;;;11.15;8.32;;;;;;;;;;4952453;28;20027;-67
2022/01/29 06:43:40;;;;;;;11.77;8.38;;;;;;;;;;4966876;28;20114;-68
2022/01/29 06:46:05;;;;;;;10.60;7.57;;;;;;;;;;4952089;28;20021;-69
2022/01/29 06:48:30;;;;;;;11.10;7.65;;;;;;;;;;4951169;28;20047;-68
2022/01/29 06:50:55;;;;;;;11.65;7.30;;;;;;;;;;4951817;28;20481;-68
2022/01/29 06:53:21;;;;;;;12.77;9.30;;;;;;;;;;4955412;29;20463;-68
2022/01/29 06:55:46;;;;;;;15.85;9.40;;;;;;;;;;4955356;28;20432;-67
2022/01/29 06:58:11;;;;;;;12.45;9.00;;;;;;;;;;4954836;28;20026;-68
2022/01/29 07:00:36;;;;;;;14.23;8.25;;;;;;;;;;4954883;28;20480;-67
2022/01/29 07:03:02;;;;;;;16.65;10.25;;;;;;;;;;4955895;28;20468;-68
2022/01/29 07:05:27;;;;;;;15.68;8.65;;;;;;;;;;4954279;29;20031;-67
2022/01/29 07:07:52;;;;;;;10.98;7.25;;;;;;;;;;4955989;28;20110;-68
2022/01/29 07:10:17;;;;;;;10.82;7.32;;;;;;;;;;4954499;29;20031;-67
2022/01/29 07:12:43;;;;;;;15.65;9.65;;;;;;;;;;4956497;28;20533;-68
2022/01/29 07:15:09;;;;;;;14.57;8.70;;;;;;;;;;4955349;28;20019;-68
2022/01/29 07:17:34;;;;;;;18.00;10.95;;;;;;;;;;4951778;29;20039;-66
2022/01/29 07:20:00;;;;;;;19.77;10.50;;;;;;;;;;4943118;28;20228;-67
2022/01/29 07:22:25;;;;;;;15.50;9.97;;;;;;;;;;4952310;28;20066;-68
2022/01/29 07:24:50;;;;;;;15.65;9.70;;;;;;;;;;4955050;28;20110;-67
2022/01/29 07:27:15;;;;;;;11.73;7.72;;;;;;;;;;4955579;29;20114;-67
2022/01/29 07:29:41;;;;;;;16.67;9.03;;;;;;;;;;4954657;29;20118;-68
2022/01/29 07:32:06;;;;;;;14.53;8.10;;;;;;;;;;4955750;29;20030;-67
2022/01/29 07:34:32;;;;;;;15.57;10.00;;;;;;;;;;4956065;29;20514;-67
2022/01/29 07:36:57;;;;;;;17.40;10.03;;;;;;;;;;4955503;28;20445;-68
2022/01/29 07:39:23;;;;;;;14.03;9.27;;;;;;;;;;4955184;28;20035;-68
2022/01/29 07:41:48;;;;;;;16.17;8.90;;;;;;;;;;4954726;29;20039;-67
2022/01/29 07:44:14;;;;;;;9.10;7.10;;;;;;;;;;4955503;29;20023;-67
2022/01/29 07:46:39;;;;;;;12.03;7.70;;;;;;;;;;4955401;28;20050;-68
2022/01/29 07:49:04;;;;;;;8.57;4.97;;;;;;;;;;4955265;29;20039;-67
2022/01/29 07:51:30;;;;;;;15.70;8.37;;;;;;;;;;4950813;28;20053;-68
2022/01/29 07:53:55;;;;;;;10.73;6.67;;;;;;;;;;4954038;29;20046;-67
2022/01/29 07:56:20;;;;;;;14.77;9.77;;;;;;;;;;4954680;28;20037;-67
2022/01/29 07:58:46;;;;;;;12.10;8.60;;;;;;;;;;4954815;29;20027;-67
2022/01/29 08:01:12;;;;;;;11.53;6.03;;;;;;;;;;4953603;28;20051;-66
2022/01/29 08:03:37;;;;;;;14.57;9.03;;;;;;;;;;4955428;28;20023;-68
2022/01/29 08:06:02;;;;;;;13.25;8.13;;;;;;;;;;4954919;28;20339;-67
2022/01/29 08:08:27;;;;;;;10.67;6.90;;;;;;;;;;4954455;28;20028;-67
2022/01/29 08:10:52;;;;;;;14.53;8.10;;;;;;;;;;4950388;29;20104;-66
2022/01/29 08:13:18;;;;;;;12.15;8.32;;;;;;;;;;4940542;29;20373;-67
2022/01/29 08:15:43;;;;;;;10.33;6.23;;;;;;;;;;4953831;28;20491;-67
2022/01/29 08:18:09;;;;;;;13.23;8.47;;;;;;;;;;4954547;29;20532;-67
2022/01/29 08:20:34;;;;;;;12.60;7.80;;;;;;;;;;4951075;28;20023;-67
2022/01/29 08:22:59;;;;;;;10.73;7.60;;;;;;;;;;4937672;29;20059;-68
2022/01/29 08:25:24;;;;;;;8.88;6.90;;;;;;;;;;4951735;29;20114;-67
2022/01/29 08:27:51;;;;;;;12.73;7.00;;;;;;;;;;4951810;28;20047;-67
2022/01/29 08:30:16;;;;;;;9.73;6.63;;;;;;;;;;4952715;29;20427;-68
2022/01/29 08:32:42;;;;;;;8.85;4.72;;;;;;;;;;4956067;28;20031;-66
2022/01/29 08:35:14;;;;;;;6.18;4.18;;;;;;;;;;4953168;29;20085;-68
2022/01/29 08:37:39;;;;;;;8.77;7.10;;;;;;;;;;4953955;28;20018;-68
2022/01/29 08:40:05;;;;;;;7.88;5.63;;;;;;;;;;4954428;28;20011;-67
2022/01/29 08:42:30;;;;;;;10.50;5.77;;;;;;;;;;4953904;28;20180;-68
2022/01/29 08:44:56;;;;;;;4.05;3.33;;;;;;;;;;4954381;28;20445;-68
2022/01/29 08:47:21;;;;;;;6.32;4.95;;;;;;;;;;4952901;29;20051;-66
2022/01/29 08:49:46;;;;;;;9.73;6.03;;;;;;;;;;4951718;29;20043;-66
2022/01/29 08:52:11;;;;;;;7.53;5.30;;;;;;;;;;4945412;28;20035;-67
2022/01/29 08:54:36;;;;;;;5.78;2.78;;;;;;;;;;4954060;28;20070;-67
2022/01/29 08:57:02;;;;;;;7.37;4.67;;;;;;;;;;4954230;28;20033;-67
2022/01/29 08:59:27;;;;;;;7.33;4.53;;;;;;;;;;4953101;29;20085;-67
2022/01/29 09:01:52;;;;;;;7.60;6.00;;;;;;;;;;4953053;29;20039;-67
2022/01/29 09:04:17;;;;;;;7.35;4.78;;;;;;;;;;4953492;28;20050;-67
2022/01/29 09:06:43;;;;;;;5.05;3.53;;;;;;;;;;4954213;29;20057;-67
2022/01/29 09:09:08;;;;;;;9.20;5.00;;;;;;;;;;4953628;29;20024;-68
2022/01/29 09:11:34;;;;;;;5.60;4.03;;;;;;;;;;4968578;28;20642;-68
2022/01/29 09:13:59;;;;;;;5.40;3.42;;;;;;;;;;4953927;28;20514;-68
2022/01/29 09:16:24;;;;;;;7.68;3.95;;;;;;;;;;4952424;29;20027;-65
2022/01/29 09:18:49;;;;;;;6.60;4.53;;;;;;;;;;4952020;29;20035;-68
2022/01/29 09:21:14;;;;;;;6.50;4.07;;;;;;;;;;4946810;29;20065;-67
2022/01/29 09:23:41;;;;;;;3.75;2.58;;;;;;;;;;4952357;28;20408;-68
2022/01/29 09:26:06;;;;;;;6.55;4.38;;;;;;;;;;4953167;28;20039;-66
2022/01/29 09:28:31;;;;;;;5.13;3.90;;;;;;;;;;4953308;29;20496;-67
2022/01/29 09:30:56;;;;;;;6.90;3.92;;;;;;;;;;4953307;28;20023;-67
2022/01/29 09:33:22;;;;;;;6.25;4.20;;;;;;;;;;4953623;28;20023;-68
2022/01/29 09:35:47;;;;;;;3.15;2.53;;;;;;;;;;4953518;28;20400;-68
2022/01/29 09:38:12;;;;;;;7.30;4.97;;;;;;;;;;4952965;29;20050;-68
2022/01/29 09:40:40;;;;;;;4.20;3.03;;;;;;;;;;4953003;28;20042;-69
2022/01/29 09:43:08;;;;;;;5.80;4.25;;;;;;;;;;4953184;29;20110;-69
2022/01/29 09:45:33;;;;;;;6.28;4.65;;;;;;;;;;4952451;28;20484;-69
2022/01/29 09:48:02;;;;;;;5.15;3.97;;;;;;;;;;4953136;29;20156;-68
2022/01/29 09:50:28;;;;;;;6.07;3.97;;;;;;;;;;4948567;29;20111;-68
2022/01/29 09:52:54;;;;;;;7.18;4.93;;;;;;;;;;4952158;28;20042;-67
2022/01/29 09:55:19;;;;;;;5.45;4.10;;;;;;;;;;4945174;28;20043;-68
2022/01/29 09:57:44;;;;;;;5.82;3.47;;;;;;;;;;4953075;29;20042;-67
2022/01/29 10:00:10;;;;;;;7.63;5.90;;;;;;;;;;4951710;28;20027;-68
2022/01/29 10:02:36;;;;;;;4.18;3.17;;;;;;;;;;4952160;28;20086;-68
2022/01/29 10:05:01;;;;;;;7.20;4.45;;;;;;;;;;4953719;29;20417;-68
2022/01/29 10:07:29;;;;;;;6.18;4.32;;;;;;;;;;4952831;29;20136;-69
2022/01/29 10:09:55;;;;;;;7.80;5.00;;;;;;;;;;4953444;28;20012;-67
2022/01/29 10:12:30;;;;;;;8.90;4.82;;;;;;;;;;4953423;28;20030;-68
2022/01/29 10:14:57;;;;;;;6.47;4.85;;;;;;;;;;4949700;28;20041;-68
2022/01/29 10:17:39;;;;;;;7.22;4.53;;;;;;;;;;4953204;29;20024;-68
2022/01/29 10:20:07;;;;;;;6.43;5.00;;;;;;;;;;4939071;29;20035;-67
2022/01/29 10:22:35;;;;;;;5.72;4.43;;;;;;;;;;4951062;29;20023;-69
2022/01/29 10:25:03;;;;;;;6.10;3.67;;;;;;;;;;4966206;28;20449;-69
2022/01/29 10:27:29;;;;;;;8.15;4.35;;;;;;;;;;4954189;29;20029;-68
2022/01/29 10:30:00;;;;;;;7.45;4.65;;;;;;;;;;4955662;28;20024;-67
2022/01/29 10:32:26;;;;;;;7.63;4.93;;;;;;;;;;4956480;28;20058;-66
2022/01/29 10:34:56;;;;;;;4.57;3.20;;;;;;;;;;4956861;29;20064;-67
2022/01/29 10:37:23;;;;;;;6.43;4.45;;;;;;;;;;4955616;28;20066;-67
2022/01/29 10:40:12;;;;;;;6.32;4.53;;;;;;;;;;4955536;28;20023;-68
2022/01/29 10:42:38;;;;;;;6.55;4.80;;;;;;;;;;4958351;28;20035;-67
2022/01/29 10:45:05;;;;;;;5.28;3.35;;;;;;;;;;4961097;28;20024;-68
2022/01/29 10:47:30;;;;;;;5.65;3.95;;;;;;;;;;4955919;28;20015;-67
2022/01/29 10:49:58;;;;;;;8.82;4.97;;;;;;;;;;4953801;28;20031;-67
2022/01/29 10:52:30;;;;;;;6.32;3.72;;;;;;;;;;4954841;29;20085;-66
2022/01/29 10:54:59;;;;;;;6.28;4.20;;;;;;;;;;4956451;28;20023;-69
2022/01/29 10:57:29;;;;;;;6.47;4.50;;;;;;;;;;4956581;28;20376;-68
2022/01/29 10:59:55;;;;;;;5.57;4.05;;;;;;;;;;4956083;28;20479;-68
2022/01/29 11:02:21;;;;;;;6.88;4.50;;;;;;;;;;4955427;29;20023;-68
2022/01/29 11:04:48;;;;;;;5.65;3.10;;;;;;;;;;4956054;29;20107;-68
2022/01/29 11:07:17;;;;;;;4.20;3.40;;;;;;;;;;4956405;29;20027;-66
2022/01/29 11:09:44;;;;;;;7.05;4.07;;;;;;;;;;4956430;29;20110;-69
2022/01/29 11:12:10;;;;;;;6.07;3.78;;;;;;;;;;4956540;28;20050;-69
2022/01/29 11:14:37;;;;;;;7.00;4.40;;;;;;;;;;4956225;28;20031;-67
2022/01/29 11:17:03;;;;;;;6.78;4.53;;;;;;;;;;4956035;28;20043;-67
2022/01/29 11:19:28;;;;;;;4.63;3.13;;;;;;;;;;4955245;29;20499;-67
2022/01/29 11:21:54;;;;;;;6.25;4.03;;;;;;;;;;4952839;28;20034;-68
2022/01/29 11:24:21;;;;;;;5.70;4.00;;;;;;;;;;4956256;28;20038;-68
2022/01/29 11:26:47;;;;;;;5.53;4.00;;;;;;;;;;4955985;28;20122;-68
2022/01/29 11:29:31;;;;;;;5.65;3.70;;;;;;;;;;4955604;29;20106;-69
2022/01/29 11:32:15;;;;;;;4.03;3.53;;;;;;;;;;4956051;28;20049;-68
2022/01/29 11:34:58;;;;;;;4.50;2.78;;;;;;;;;;4955931;28;20126;-68
2022/01/29 11:37:43;;;;;;;4.00;2.58;;;;;;;;;;4955881;28;20035;-66
2022/01/29 11:40:10;;;;;;;3.22;2.42;;;;;;;;;;4955807;28;20066;-67
2022/01/29 11:42:36;;;;;;;2.40;2.17;;;;;;;;;;4955495;28;20027;-68
2022/01/29 11:45:21;;;;;;;3.53;2.70;;;;;;;;;;4955090;28;20520;-67
2022/01/29 11:47:47;;;;;;;2.55;1.58;;;;;;;;;;4951240;29;20031;-68
2022/01/29 11:50:18;;;;;;;1.95;1.77;;;;;;;;;;4952642;29;20118;-67
2022/01/29 11:52:56;;;;;;;2.67;1.83;;;;;;;;;;4953522;29;20424;-67
2022/01/29 11:55:35;;;;;;;1.65;1.25;;;;;;;;;;4955452;29;20031;-67
2022/01/29 11:58:18;;;;;;;3.20;2.00;;;;;;;;;;4955509;29;20027;-66
2022/01/29 12:00:45;;;;;;;1.73;1.10;;;;;;;;;;4954369;28;20034;-67
2022/01/29 12:03:29;;;;;;;2.47;1.63;;;;;;;;;;4955348;28;20035;-67
2022/01/29 12:09:18;;;;;;;2.22;1.23;;;;;;;;;;4955115;28;20121;-67
2022/01/29 12:12:03;;;;;;;1.38;1.17;;;;;;;;;;4955385;28;20034;-67
2022/01/29 12:14:28;;;;;;;1.85;1.60;;;;;;;;;;4955040;29;20035;-67
2022/01/29 12:16:57;;;;;;;1.90;1.20;;;;;;;;;;4955242;28;20035;-68
2022/01/29 12:19:41;;;;;;;1.83;1.13;;;;;;;;;;4954633;28;20365;-67
2022/01/29 12:22:11;;;;;;;1.60;0.95;;;;;;;;;;4952851;28;20038;-66
2022/01/29 12:24:36;;;;;;;1.40;1.02;;;;;;;;;;4954465;28;20072;-66
2022/01/29 12:27:02;;;;;;;2.08;1.00;;;;;;;;;;4955056;28;20050;-66
2022/01/29 12:29:28;;;;;;;1.10;0.60;;;;;;;;;;4955505;28;20034;-66
2022/01/29 12:31:53;;;;;;;1.00;0.70;;;;;;;;;;4954658;29;20389;-65
2022/01/29 12:34:20;;;;;;;0.90;0.50;;;;;;;;;;4954934;29;20392;-66
2022/01/29 12:36:45;;;;;;;1.33;0.30;;;;;;;;;;4955100;28;20369;-65
2022/01/29 12:39:20;;;;;;;1.17;0.40;;;;;;;;;;4953998;28;20115;-65
2022/01/29 12:41:45;;;;;;;1.27;0.60;;;;;;;;;;4954551;29;20023;-65
2022/01/29 12:44:18;;;;;;;0.65;0.40;;;;;;;;;;4954676;29;20419;-65
2022/01/29 12:46:45;;;;;;;0.73;0.40;;;;;;;;;;4936846;29;20027;-65
2022/01/29 12:49:11;;;;;;;0.55;0.30;;;;;;;;;;4941935;28;20465;-66
2022/01/29 12:51:56;;;;;;;0.70;0.38;;;;;;;;;;4965200;28;20030;-64
2022/01/29 12:54:23;;;;;;;0.90;0.30;;;;;;;;;;4953992;29;20027;-67
2022/01/29 12:56:48;;;;;;;0.50;0.15;;;;;;;;;;4954522;28;20122;-64
2022/01/29 12:59:14;;;;;;;0.75;0.45;;;;;;;;;;4954564;28;20142;-65
2022/01/29 13:01:41;;;;;;;0.52;0.30;;;;;;;;;;4953857;28;20082;-66
2022/01/29 13:04:18;;;;;;;0.57;0.30;;;;;;;;;;4953995;29;20403;-64
2022/01/29 13:06:44;;;;;;;1.08;0.43;;;;;;;;;;4954754;28;20019;-65
2022/01/29 13:09:10;;;;;;;0.25;0.20;;;;;;;;;;4954401;28;20490;-66
2022/01/29 13:11:36;;;;;;;0.90;0.30;;;;;;;;;;4952760;29;20023;-65
2022/01/29 13:14:09;;;;;;;0.80;0.20;;;;;;;;;;4954387;29;20027;-65
2022/01/29 13:16:34;;;;;;;0.68;0.30;;;;;;;;;;4954113;28;20035;-63
2022/01/29 13:19:00;;;;;;;1.02;0.40;;;;;;;;;;4954032;28;20392;-66
2022/01/29 13:21:26;;;;;;;0.60;0.50;;;;;;;;;;4950889;28;20053;-65
2022/01/29 13:23:52;;;;;;;0.68;0.40;;;;;;;;;;4968615;28;20050;-65
2022/01/29 13:26:18;;;;;;;0.40;0.30;;;;;;;;;;4953891;28;20051;-65
2022/01/29 13:28:47;;;;;;;0.60;0.30;;;;;;;;;;4954016;29;20051;-64
2022/01/29 13:31:13;;;;;;;1.00;0.57;;;;;;;;;;4953250;29;20491;-66
2022/01/29 13:33:38;;;;;;;0.90;0.60;;;;;;;;;;4953420;28;20027;-65
2022/01/29 13:36:03;;;;;;;0.77;0.50;;;;;;;;;;4953689;29;20055;-65
2022/01/29 13:38:33;;;;;;;1.40;0.65;;;;;;;;;;4952566;29;20110;-65
2022/01/29 13:41:00;;;;;;;1.30;0.68;;;;;;;;;;4951146;28;20029;-65
2022/01/29 13:43:35;;;;;;;1.00;0.60;;;;;;;;;;4956420;28;20061;-65
2022/01/29 13:46:05;;;;;;;1.10;0.50;;;;;;;;;;4958037;28;20038;-65
2022/01/29 13:49:02;;;;;;;1.00;0.70;;;;;;;;;;4952781;28;20023;-65
2022/01/29 13:51:27;;;;;;;0.80;0.80;;;;;;;;;;4946796;28;20042;-64
2022/01/29 13:53:55;;;;;;;1.00;0.60;;;;;;;;;;4953407;29;20024;-66
2022/01/29 13:56:20;;;;;;;1.60;0.98;;;;;;;;;;4952910;28;20027;-65
2022/01/29 13:58:52;;;;;;;1.23;0.77;;;;;;;;;;4954787;28;20082;-65
2022/01/29 14:01:36;;;;;;;1.35;0.68;;;;;;;;;;4956497;28;20480;-66
2022/01/29 14:04:02;;;;;;;1.02;0.50;;;;;;;;;;4940902;29;20045;-66
2022/01/29 14:06:37;;;;;;;1.15;1.00;;;;;;;;;;4957139;29;20106;-66
2022/01/29 14:09:08;;;;;;;1.25;0.95;;;;;;;;;;4957225;29;20028;-65
2022/01/29 14:11:52;;;;;;;3.08;1.90;;;;;;;;;;4957158;28;20053;-64
2022/01/29 14:14:17;;;;;;;1.13;0.90;;;;;;;;;;4939593;29;20233;-65
2022/01/29 14:16:42;;;;;;;1.15;0.70;;;;;;;;;;4956378;29;20027;-65
2022/01/29 14:19:17;;;;;;;1.70;1.10;;;;;;;;;;4957462;28;20043;-66
2022/01/29 14:21:43;;;;;;;1.17;0.85;;;;;;;;;;4953192;28;20031;-65
2022/01/29 14:24:08;;;;;;;1.33;0.75;;;;;;;;;;4953175;29;20038;-65
2022/01/29 14:26:34;;;;;;;1.02;0.80;;;;;;;;;;4956300;29;20027;-66
2022/01/29 14:28:59;;;;;;;1.23;1.00;;;;;;;;;;4956094;29;20469;-67
2022/01/29 14:31:24;;;;;;;0.98;0.82;;;;;;;;;;4955469;28;20027;-68
2022/01/29 14:33:49;;;;;;;1.20;0.70;;;;;;;;;;4952996;29;20087;-66
2022/01/29 14:36:14;;;;;;;0.60;0.50;;;;;;;;;;4955526;29;20043;-67
2022/01/29 14:38:40;;;;;;;1.05;0.95;;;;;;;;;;4956367;29;20111;-66
2022/01/29 14:41:05;;;;;;;1.85;1.48;;;;;;;;;;4956890;29;20511;-68
2022/01/29 14:43:32;;;;;;;0.93;0.80;;;;;;;;;;4954876;29;20476;-67
2022/01/29 14:45:59;;;;;;;0.93;0.45;;;;;;;;;;4955427;28;20027;-66
2022/01/29 14:48:24;;;;;;;0.90;0.65;;;;;;;;;;4956023;29;20034;-67
2022/01/29 14:50:49;;;;;;;1.13;0.60;;;;;;;;;;4953333;28;20023;-67
2022/01/29 14:53:15;;;;;;;0.60;0.40;;;;;;;;;;4955670;28;20046;-67